Nikolaevskoe, Russia
Current Conditions -  °F | °C
As of 11:00 AM on Thursday 27 Nov 2014 (Local Time) from ULOO Reporting Station
Light Snow Light Snow  
Wind Chill: 17°   Ceiling: 500
Heat Index: 25°   Visibility: 1.8mi
Dew Point: 23°   Wind: 7mph
Humidity: 93%   Direction: 190°S
Pressure: 30.36"   Gusts: NA
Location:  58.57°N, 29.8°E
Report Text: ULOO 270800Z 19003MPS 3000 -SN BR OVC005 M04/M05 Q1028 NOSIGRMK OBST OBSC QFE767
Loading
Personal Weather Stations






























Interactive Weather Map New forecast layout! Learn more

10-Day Weather Forecast

Advertisements
Track Severe Weather on mobile